Time;durP1;ratioP1;P1;durP2;ratioP2;P2;SDS_P1;SDS_P2;PMS_P1;PMS_P2;Temp;Humidity;BMP_temperature;BMP_pressure;BME280_temperature;BME280_humidity;BME280_pressure;Samples;Min_cycle;Max_cycle;Signal;HPM_P1;HPM_P2
2023/08/15 00:01:25;;;;;;;5.00;3.85;;;23.10;76.80;;;22.43;100.00;95936.09;4947219;28;20035;-63
2023/08/15 00:03:51;;;;;;;5.38;4.47;;;23.10;76.80;;;22.40;100.00;95933.94;4931304;28;20038;-63
2023/08/15 00:06:18;;;;;;;6.30;4.10;;;23.10;76.90;;;22.38;100.00;95938.75;4947343;28;20074;-62
2023/08/15 00:08:44;;;;;;;6.95;4.15;;;23.00;77.20;;;22.37;100.00;95930.97;4948268;28;20123;-62
2023/08/15 00:11:10;;;;;;;6.30;4.90;;;23.00;77.30;;;22.35;100.00;95933.94;4948160;28;20461;-63
2023/08/15 00:13:36;;;;;;;7.25;4.30;;;23.00;77.40;;;22.33;100.00;95944.13;4930739;28;20362;-61
2023/08/15 00:16:01;;;;;;;6.78;4.45;;;23.00;77.50;;;22.31;100.00;95938.22;4948480;28;20099;-61
2023/08/15 00:18:27;;;;;;;5.05;4.00;;;23.00;77.60;;;22.27;100.00;95943.31;4933629;29;20091;-64
2023/08/15 00:20:53;;;;;;;6.18;4.55;;;22.90;77.70;;;22.21;100.00;95940.91;4946646;28;20062;-63
2023/08/15 00:23:20;;;;;;;6.15;4.78;;;22.90;77.80;;;22.18;100.00;95952.13;4948191;28;20069;-63
2023/08/15 00:25:45;;;;;;;7.82;4.70;;;22.80;78.10;;;22.15;100.00;95944.63;4946451;28;20499;-62
2023/08/15 00:28:11;;;;;;;14.63;4.78;;;22.80;78.10;;;22.13;100.00;95946.78;4948805;28;20088;-62
2023/08/15 00:30:40;;;;;;;8.82;4.68;;;22.80;78.20;;;22.08;100.00;95941.41;4945082;28;20063;-62
2023/08/15 00:33:06;;;;;;;6.00;4.75;;;22.80;78.20;;;22.05;100.00;95944.63;4930596;28;20035;-63
2023/08/15 00:35:31;;;;;;;7.30;5.03;;;22.70;78.30;;;22.00;100.00;95942.72;4946417;28;20066;-62
2023/08/15 00:37:57;;;;;;;6.22;4.88;;;22.70;78.30;;;21.97;100.00;95938.69;4930283;28;20107;-63
2023/08/15 00:40:23;;;;;;;6.40;4.75;;;22.60;78.40;;;21.95;100.00;95940.84;4948315;28;20155;-62
2023/08/15 00:42:49;;;;;;;6.05;5.18;;;22.60;78.50;;;21.89;100.00;95941.06;4931462;28;20038;-63
2023/08/15 00:45:15;;;;;;;6.05;5.15;;;22.60;78.70;;;21.88;100.00;95945.63;4947204;28;20494;-63
2023/08/15 00:47:40;;;;;;;6.90;4.72;;;22.50;78.70;;;21.86;100.00;95947.75;4947470;28;20520;-64
2023/08/15 00:50:06;;;;;;;7.28;4.97;;;22.60;78.70;;;21.81;100.00;95955.78;4946095;28;20059;-62
2023/08/15 00:52:32;;;;;;;5.57;5.00;;;22.50;78.90;;;21.78;100.00;95942.91;4946248;28;20051;-61
2023/08/15 00:54:58;;;;;;;5.72;5.10;;;22.40;78.90;;;21.75;100.00;95946.13;4929954;28;20086;-63
2023/08/15 00:57:24;;;;;;;8.18;5.05;;;22.40;79.20;;;21.71;100.00;95950.38;4930007;28;20071;-63
2023/08/15 00:59:49;;;;;;;6.47;5.10;;;22.50;79.10;;;21.68;100.00;95946.34;4930312;29;20610;-62
2023/08/15 01:02:15;;;;;;;6.95;5.30;;;22.40;79.30;;;21.61;100.00;95945.81;4931741;28;20498;-61
2023/08/15 01:04:41;;;;;;;8.10;5.13;;;22.30;79.50;;;21.56;100.00;95944.97;4927488;29;20077;-61
2023/08/15 01:07:09;;;;;;;7.20;5.40;;;22.20;79.70;;;21.50;100.00;95940.66;4930099;28;20039;-61
2023/08/15 01:09:35;;;;;;;8.25;5.60;;;22.20;79.80;;;21.52;100.00;95951.94;4930138;28;20031;-61
2023/08/15 01:12:29;;;;;;;6.50;5.43;;;22.30;79.70;;;21.53;100.00;95953.53;4945399;28;20402;-62
2023/08/15 01:15:11;;;;;;;7.00;5.35;;;22.30;79.90;;;21.48;100.00;95945.47;4944415;28;20063;-62
2023/08/15 01:17:56;;;;;;;5.72;4.95;;;22.20;80.20;;;21.45;100.00;95946.00;4930635;28;20047;-61
2023/08/15 01:20:26;;;;;;;5.97;5.38;;;22.20;80.40;;;21.42;100.00;95946.53;4946429;28;20031;-62
2023/08/15 01:22:52;;;;;;;;;;;22.20;80.60;;;21.43;100.00;95948.13;4946440;28;20065;-61
2023/08/15 01:25:18;;;;;;;7.72;5.55;;;22.20;80.60;;;21.40;100.00;95944.91;4943213;28;19929;-65
2023/08/15 01:27:43;;;;;;;6.45;5.35;;;22.10;80.80;;;21.43;100.00;95948.13;4927681;29;20047;-61
2023/08/15 01:30:10;;;;;;;10.00;8.45;;;22.20;80.70;;;21.43;100.00;95951.59;4945214;28;20093;-61
2023/08/15 01:33:03;;;;;;;19.27;17.17;;;22.30;80.90;;;21.44;100.00;95949.72;4930422;29;20041;-61
2023/08/15 01:35:34;;;;;;;13.13;9.00;;;22.30;80.90;;;21.46;100.00;95952.94;4946585;28;20035;-62
2023/08/15 01:38:07;;;;;;;10.32;6.85;;;22.30;80.50;;;21.45;100.00;95956.69;4928480;28;20586;-62
2023/08/15 01:40:34;;;;;;;6.40;5.60;;;22.30;80.30;;;21.46;100.00;95948.41;4946837;28;20043;-62
2023/08/15 01:43:00;;;;;;;6.22;5.57;;;22.20;79.90;;;21.47;100.00;95955.38;4929661;28;20086;-61
2023/08/15 01:45:25;;;;;;;6.63;5.75;;;22.30;80.10;;;21.47;100.00;95954.56;4928625;28;20052;-61
2023/08/15 01:47:51;;;;;;;7.00;5.70;;;22.30;80.00;;;21.48;100.00;95948.94;4915124;29;20183;-61
2023/08/15 01:50:17;;;;;;;8.80;6.45;;;22.30;79.90;;;21.47;100.00;95959.91;4929792;29;20693;-62
2023/08/15 01:52:43;;;;;;;7.18;5.82;;;22.20;79.80;;;21.43;100.00;95948.13;4945805;28;20582;-61
2023/08/15 01:55:09;;;;;;;9.23;5.80;;;22.10;80.30;;;21.39;100.00;95942.50;4944769;28;20507;-61
2023/08/15 01:57:35;;;;;;;8.10;5.93;;;22.10;80.50;;;21.37;100.00;95948.09;4929331;28;20118;-62
2023/08/15 02:00:01;;;;;;;6.55;5.72;;;22.10;80.50;;;21.37;100.00;95950.78;4914043;29;20064;-66
2023/08/15 02:02:27;;;;;;;8.23;6.43;;;22.10;80.40;;;21.37;100.00;95944.63;4947090;28;20110;-62
2023/08/15 02:04:52;;;;;;;8.80;6.35;;;22.20;80.20;;;21.36;100.00;95949.19;4945392;28;20059;-62
2023/08/15 02:07:18;;;;;;;7.28;6.57;;;22.10;80.20;;;21.33;100.00;95939.00;4946835;28;20055;-65
2023/08/15 02:09:44;;;;;;;10.65;6.80;;;22.10;80.40;;;21.36;100.00;95941.16;4948405;28;20053;-62
2023/08/15 02:12:09;;;;;;;9.45;7.90;;;22.20;80.30;;;21.36;100.00;95933.13;4950134;28;20032;-62
2023/08/15 02:14:35;;;;;;;7.85;7.05;;;22.10;80.40;;;21.35;100.00;95942.22;4950961;28;20135;-61
2023/08/15 02:17:01;;;;;;;9.23;7.22;;;22.10;80.60;;;21.33;100.00;95939.00;4949372;28;20183;-62
2023/08/15 02:19:27;;;;;;;9.57;6.75;;;22.10;81.00;;;21.33;100.00;95932.84;4948773;28;20130;-62
2023/08/15 02:21:52;;;;;;;10.07;6.90;;;22.10;81.20;;;21.34;100.00;95929.91;4951768;28;20079;-62
2023/08/15 02:24:18;;;;;;;6.65;5.97;;;22.10;81.10;;;21.33;100.00;95928.28;4930449;29;20066;-62
2023/08/15 02:26:44;;;;;;;7.57;6.63;;;22.10;81.00;;;21.33;100.00;95933.66;4949596;28;20035;-62
2023/08/15 02:29:10;;;;;;;9.95;7.07;;;22.10;81.10;;;21.31;100.00;95933.09;4951401;28;20521;-61
2023/08/15 02:31:41;;;;;;;8.82;6.95;;;22.10;81.20;;;21.29;100.00;95935.25;4933627;28;20080;-62
2023/08/15 02:34:07;;;;;;;9.93;7.07;;;22.10;81.40;;;21.25;100.00;95931.44;4917807;28;20032;-62
2023/08/15 02:36:33;;;;;;;11.23;7.22;;;21.90;81.80;;;21.21;100.00;95935.69;4944073;28;20074;-62
2023/08/15 02:38:59;;;;;;;7.55;6.57;;;21.90;82.00;;;21.18;100.00;95930.84;4948314;28;20122;-62
2023/08/15 02:41:25;;;;;;;8.98;6.75;;;21.90;82.00;;;21.15;100.00;95931.38;4947999;28;20086;-62
2023/08/15 02:43:50;;;;;;;8.10;6.70;;;21.90;82.20;;;21.14;100.00;95928.97;4950081;28;20098;-62
2023/08/15 02:46:17;;;;;;;9.98;6.75;;;21.90;82.00;;;21.11;100.00;95927.63;4948263;28;20062;-61
2023/08/15 02:48:42;;;;;;;7.80;6.80;;;21.80;82.30;;;21.10;100.00;95924.13;4946827;28;20036;-62
2023/08/15 02:51:08;;;;;;;8.15;7.35;;;21.80;82.30;;;21.09;100.00;95927.06;4949016;28;20066;-63
2023/08/15 02:53:35;;;;;;;8.77;7.40;;;21.80;82.40;;;21.07;100.00;95929.22;4950130;28;20478;-61
2023/08/15 02:56:01;;;;;;;8.35;6.70;;;21.80;82.30;;;21.08;100.00;95930.81;4946239;28;20114;-61
2023/08/15 02:58:26;;;;;;;9.77;7.20;;;21.80;82.30;;;21.07;100.00;95923.84;4948889;28;20514;-61
2023/08/15 03:00:52;;;;;;;8.30;6.50;;;21.90;82.10;;;21.08;100.00;95925.47;4934301;29;20621;-61
2023/08/15 03:03:18;;;;;;;9.98;6.70;;;21.90;82.10;;;21.08;100.00;95925.47;4948986;28;20109;-64
2023/08/15 03:05:46;;;;;;;8.13;6.90;;;21.90;82.00;;;21.07;100.00;95918.50;4949507;28;20059;-62
2023/08/15 03:08:14;;;;;;;9.05;6.32;;;21.90;82.00;;;21.07;100.00;95918.50;4948193;28;20328;-63
2023/08/15 03:10:40;;;;;;;8.82;6.90;;;21.90;82.10;;;21.05;100.00;95920.63;4948703;28;20086;-62
2023/08/15 03:13:06;;;;;;;8.05;5.80;;;21.80;82.20;;;21.03;100.00;95912.84;4949750;28;20118;-62
2023/08/15 03:15:31;;;;;;;7.60;6.90;;;21.90;82.00;;;21.04;100.00;95919.00;4933610;28;20066;-61
2023/08/15 03:17:57;;;;;;;7.60;6.80;;;21.90;82.00;;;21.04;100.00;95919.81;4949691;28;20066;-62
2023/08/15 03:20:23;;;;;;;9.50;7.32;;;21.90;81.80;;;21.04;100.00;95916.31;4930754;28;20182;-62
2023/08/15 03:22:49;;;;;;;7.70;6.53;;;21.90;81.90;;;21.03;100.00;95918.19;4929127;29;20035;-62
2023/08/15 03:25:15;;;;;;;11.95;7.40;;;21.80;81.90;;;21.02;100.00;95915.78;4946216;28;20067;-62
2023/08/15 03:27:41;;;;;;;7.35;6.57;;;21.80;82.00;;;21.01;100.00;95924.88;4949312;28;20031;-62
2023/08/15 03:30:07;;;;;;;9.82;6.68;;;21.80;82.10;;;20.99;100.00;95927.00;4947688;28;20439;-61
2023/08/15 03:32:33;;;;;;;7.60;6.80;;;21.70;82.10;;;20.96;100.00;95927.53;4950342;28;20050;-62
2023/08/15 03:34:58;;;;;;;6.47;5.78;;;21.80;82.10;;;20.95;100.00;95926.72;4947564;28;20169;-62
2023/08/15 03:37:26;;;;;;;7.50;6.22;;;21.70;82.00;;;20.94;100.00;95926.97;4946774;28;20035;-61
2023/08/15 03:39:52;;;;;;;8.13;6.18;;;21.70;81.90;;;20.93;100.00;95917.34;4947857;28;20035;-62
2023/08/15 03:42:18;;;;;;;8.32;5.90;;;21.70;81.90;;;20.91;100.00;95930.16;4947455;28;20059;-62
2023/08/15 03:44:44;;;;;;;13.70;10.65;;;21.70;81.90;;;20.90;100.00;95933.91;4949432;28;20522;-61
2023/08/15 03:47:09;;;;;;;11.20;8.82;;;21.70;81.90;;;20.86;100.00;95930.16;4948786;28;20459;-61
2023/08/15 03:49:35;;;;;;;8.65;7.00;;;21.60;81.90;;;20.84;100.00;95935.75;4915438;28;20043;-61
2023/08/15 03:52:01;;;;;;;16.52;14.82;;;21.60;81.80;;;20.83;100.00;95928.00;4932631;29;20051;-61
2023/08/15 03:54:27;;;;;;;10.18;8.20;;;21.60;81.90;;;20.82;100.00;95935.22;4930923;29;20035;-62
2023/08/15 03:56:53;;;;;;;7.97;6.93;;;21.60;81.70;;;20.82;100.00;95934.38;4931760;29;20062;-62
2023/08/15 03:59:18;;;;;;;8.13;6.10;;;21.60;81.60;;;20.78;100.00;95932.22;4948661;28;20027;-62
2023/08/15 04:01:44;;;;;;;6.85;6.18;;;21.70;81.50;;;20.79;100.00;95944.53;4934656;29;20391;-61
2023/08/15 04:04:10;;;;;;;6.80;5.80;;;21.60;81.40;;;20.77;100.00;95930.59;4929593;28;20514;-61
2023/08/15 04:06:36;;;;;;;6.70;5.85;;;21.60;81.30;;;20.75;100.00;95929.25;4948289;28;20509;-61
2023/08/15 04:09:02;;;;;;;6.22;5.63;;;21.60;81.40;;;20.73;100.00;95926.84;4946883;28;20063;-61
2023/08/15 04:11:28;;;;;;;32.55;26.13;;;21.60;81.60;;;20.70;100.00;95930.03;4948564;28;20259;-62
2023/08/15 04:13:53;;;;;;;25.45;22.75;;;21.60;81.60;;;20.71;100.00;95937.00;4948187;28;20537;-61
2023/08/15 04:16:19;;;;;;;23.17;20.67;;;21.60;81.80;;;20.69;100.00;95939.13;4948964;28;20063;-62
2023/08/15 04:18:45;;;;;;;11.10;8.93;;;21.60;81.70;;;20.64;100.00;95941.75;4947991;28;20078;-61
2023/08/15 04:21:11;;;;;;;8.52;6.03;;;21.50;81.90;;;20.61;100.00;95942.28;4950054;28;20121;-61
2023/08/15 04:23:37;;;;;;;6.90;6.20;;;21.50;82.00;;;20.61;100.00;95942.28;4947289;28;20038;-61
2023/08/15 04:26:02;;;;;;;16.85;14.10;;;21.50;82.00;;;20.64;100.00;95941.75;4947996;28;20535;-62
2023/08/15 04:28:28;;;;;;;30.13;26.38;;;21.60;81.80;;;20.63;100.00;95942.81;4947594;28;20074;-62
2023/08/15 04:30:54;;;;;;;11.45;10.18;;;21.50;81.90;;;20.64;100.00;95947.09;4945121;28;20055;-62
2023/08/15 04:33:20;;;;;;;7.40;6.57;;;21.60;81.90;;;20.64;100.00;95951.63;4946512;28;20075;-62
2023/08/15 04:35:46;;;;;;;8.15;6.20;;;21.60;81.80;;;20.63;100.00;95956.19;4949117;28;20065;-62
2023/08/15 04:38:12;;;;;;;6.15;5.53;;;21.50;81.90;;;20.60;100.00;95951.34;4947388;28;20082;-61
2023/08/15 04:40:40;;;;;;;6.38;5.45;;;21.50;81.90;;;20.58;100.00;95949.97;4931886;29;20027;-61
2023/08/15 04:43:06;;;;;;;8.63;5.53;;;21.50;82.10;;;20.56;100.00;95952.09;4947624;28;20049;-62
2023/08/15 04:45:32;;;;;;;8.30;5.70;;;21.50;82.00;;;20.58;100.00;95949.97;4947928;28;20114;-62
2023/08/15 04:47:58;;;;;;;7.13;5.40;;;21.60;81.80;;;20.58;100.00;95948.09;4963819;28;20046;-62
2023/08/15 04:50:23;;;;;;;6.88;5.40;;;21.50;81.60;;;20.55;100.00;95945.13;4931361;28;20042;-62
2023/08/15 04:52:49;;;;;;;6.43;5.50;;;21.60;81.70;;;20.58;100.00;95957.97;4947626;28;20059;-61
2023/08/15 04:55:15;;;;;;;5.93;5.40;;;21.50;81.70;;;20.59;100.00;95959.59;4927399;28;20031;-62
2023/08/15 04:57:41;;;;;;;7.07;5.95;;;21.60;81.60;;;20.62;100.00;95959.13;4946802;28;20107;-61
2023/08/15 05:00:11;;;;;;;6.22;5.25;;;21.60;81.70;;;20.65;100.00;95958.59;4932986;28;20502;-62
2023/08/15 05:02:40;;;;;;;6.05;5.43;;;21.60;81.60;;;20.67;100.00;95965.28;4931904;28;20045;-62
2023/08/15 05:05:09;;;;;;;6.20;5.60;;;21.70;81.60;;;20.70;100.00;95972.00;4950001;28;20039;-62
2023/08/15 05:07:35;;;;;;;7.65;5.50;;;21.70;81.50;;;20.71;100.00;95974.41;4945450;28;20027;-62
2023/08/15 05:10:01;;;;;;;10.25;5.85;;;21.70;81.50;;;20.73;100.00;95977.63;4947175;28;20031;-62
2023/08/15 05:12:27;;;;;;;7.25;6.55;;;21.80;81.50;;;20.76;100.00;95977.13;4930915;28;20058;-62
2023/08/15 05:14:53;;;;;;;9.13;6.32;;;21.80;81.30;;;20.79;100.00;95981.94;4949215;28;20090;-63
2023/08/15 05:17:19;;;;;;;8.68;6.30;;;21.90;81.10;;;20.82;100.00;95974.47;4963006;28;20032;-65
2023/08/15 05:19:44;;;;;;;6.80;6.10;;;21.90;81.10;;;20.85;100.00;95990.03;4929540;29;20566;-66
2023/08/15 05:22:10;;;;;;;6.25;5.65;;;22.00;81.00;;;20.87;100.00;95988.69;4928871;28;20110;-65
2023/08/15 05:24:36;;;;;;;7.88;6.15;;;22.00;80.90;;;20.92;100.00;95996.75;4945415;28;20499;-63
2023/08/15 05:27:02;;;;;;;8.45;6.07;;;22.10;80.60;;;20.98;100.00;95994.91;4947892;28;20067;-62
2023/08/15 05:29:27;;;;;;;5.90;5.10;;;22.10;80.60;;;21.03;100.00;95998.44;4920044;28;20042;-63
2023/08/15 05:31:53;;;;;;;5.95;5.35;;;22.20;80.10;;;21.08;100.00;96003.03;4945500;28;20064;-62
2023/08/15 05:34:19;;;;;;;5.70;5.10;;;22.20;80.10;;;21.14;100.00;96003.84;4946254;28;20047;-62
2023/08/15 05:36:45;;;;;;;6.30;5.28;;;22.30;79.30;;;21.18;100.00;96000.41;4947009;28;20055;-62
2023/08/15 05:39:13;;;;;;;5.18;4.68;;;22.30;79.20;;;21.25;100.00;95995.66;4947186;28;20071;-62
2023/08/15 05:41:39;;;;;;;7.68;5.47;;;22.50;78.80;;;21.32;100.00;96001.59;4963171;28;20031;-62
2023/08/15 05:44:05;;;;;;;5.75;5.18;;;22.60;78.60;;;21.37;100.00;96004.31;4951276;28;20027;-62
2023/08/15 05:46:31;;;;;;;5.05;4.55;;;22.60;78.40;;;21.46;100.00;95999.25;4950182;28;20106;-62
2023/08/15 05:48:56;;;;;;;5.10;4.53;;;22.80;78.40;;;21.56;100.00;95995.84;4951843;28;20206;-62
2023/08/15 05:51:22;;;;;;;6.57;4.68;;;22.90;77.70;;;21.67;100.00;95998.28;4964508;28;20070;-62
2023/08/15 05:53:48;;;;;;;5.28;4.40;;;23.00;76.80;;;21.78;100.00;96004.50;4951716;28;20071;-62
2023/08/15 05:56:14;;;;;;;5.40;4.22;;;23.20;77.00;;;21.89;100.00;95999.97;4949675;28;20593;-62
2023/08/15 05:58:40;;;;;;;5.72;4.32;;;23.40;76.70;;;22.01;100.00;96004.06;4951666;28;20093;-62
2023/08/15 06:01:05;;;;;;;9.20;7.45;;;23.50;75.90;;;22.14;100.00;95997.41;4951642;28;20119;-62
2023/08/15 06:03:32;;;;;;;5.22;4.20;;;23.70;75.20;;;22.25;100.00;96011.66;4934978;28;20491;-62
2023/08/15 06:05:58;;;;;;;6.70;4.78;;;23.80;74.00;;;22.35;100.00;96008.97;4950431;28;20046;-62
2023/08/15 06:08:24;;;;;;;5.03;4.53;;;23.90;74.10;;;22.48;100.00;96016.50;4949722;28;20067;-62
2023/08/15 06:10:49;;;;;;;8.82;4.90;;;24.10;73.50;;;22.62;100.00;96014.09;4951713;28;20078;-62
2023/08/15 06:13:15;;;;;;;5.25;4.75;;;24.20;73.10;;;22.73;100.00;96020.28;4950248;28;20487;-63
2023/08/15 06:15:41;;;;;;;7.40;4.70;;;24.30;72.70;;;22.83;100.00;96020.31;4955544;28;20507;-62
2023/08/15 06:18:07;;;;;;;5.53;5.00;;;24.40;71.90;;;22.96;100.00;96014.41;4934408;28;20043;-62
2023/08/15 06:20:32;;;;;;;6.30;4.07;;;24.60;71.30;;;23.09;100.00;96013.88;4933660;28;20413;-62
2023/08/15 06:22:58;;;;;;;5.30;4.50;;;24.80;71.00;;;23.22;100.00;96017.88;4948890;28;20122;-62
2023/08/15 06:25:24;;;;;;;5.78;4.50;;;24.90;69.80;;;23.33;100.00;96016.00;4961514;28;20071;-63
2023/08/15 06:27:50;;;;;;;7.60;5.10;;;25.00;69.00;;;23.43;100.00;96018.63;4918135;29;20254;-65
2023/08/15 06:30:15;;;;;;;13.77;11.65;;;25.10;69.80;;;23.56;100.00;96028.84;4949900;28;20063;-67
2023/08/15 06:32:41;;;;;;;6.15;4.93;;;25.30;69.50;;;23.67;100.00;96030.41;4950427;28;20049;-66
2023/08/15 06:35:09;;;;;;;6.40;4.55;;;25.40;69.30;;;23.77;100.00;96032.28;4949861;28;20067;-66
2023/08/15 06:37:34;;;;;;;8.57;4.13;;;25.50;69.40;;;23.89;100.00;96021.22;4964459;28;20090;-66
2023/08/15 06:40:00;;;;;;;4.78;3.92;;;25.60;69.00;;;23.98;100.00;96024.94;4949944;28;20578;-67
2023/08/15 06:42:26;;;;;;;5.40;3.83;;;25.60;68.20;;;24.05;100.00;96023.56;4949733;28;20066;-65
2023/08/15 06:45:11;;;;;;;5.07;4.13;;;25.70;67.90;;;24.17;99.38;96028.59;4954542;28;20070;-65
2023/08/15 06:47:37;;;;;;;5.05;4.40;;;25.80;67.20;;;24.24;100.00;96039.88;4948832;28;20581;-65
2023/08/15 06:50:03;;;;;;;5.47;4.15;;;25.90;67.70;;;24.31;100.00;96029.63;4952282;28;20150;-67
2023/08/15 06:52:28;;;;;;;5.28;4.20;;;25.90;67.30;;;24.36;99.54;96032.28;4949064;28;20035;-69
2023/08/15 06:54:54;;;;;;;5.38;4.07;;;26.00;67.00;;;24.42;99.69;96031.19;4948448;28;20059;-63
2023/08/15 06:57:20;;;;;;;5.25;4.05;;;26.00;67.30;;;24.49;100.00;96036.25;4949467;28;20066;-66
2023/08/15 06:59:45;;;;;;;4.82;3.90;;;26.10;67.40;;;24.57;99.29;96037.56;4949734;28;20073;-66
2023/08/15 07:02:11;;;;;;;9.07;6.10;;;26.10;67.30;;;24.64;99.00;96040.72;4966551;28;20051;-62
2023/08/15 07:04:40;;;;;;;6.45;5.60;;;26.20;67.10;;;24.71;98.90;96033.16;4948619;28;20411;-62
2023/08/15 07:07:09;;;;;;;8.07;4.88;;;26.30;66.90;;;24.82;98.10;96039.25;4950726;28;20027;-64
2023/08/15 07:09:35;;;;;;;4.75;4.25;;;26.50;67.10;;;24.90;97.87;96030.59;4933591;28;20031;-62
2023/08/15 07:12:04;;;;;;;4.50;4.10;;;26.60;66.50;;;24.99;97.34;96028.94;4948796;28;20032;-62
2023/08/15 07:14:33;;;;;;;4.30;3.90;;;26.70;66.50;;;25.08;96.82;96024.53;4933336;28;20031;-62
2023/08/15 07:16:59;;;;;;;5.03;3.83;;;26.70;65.90;;;25.20;97.47;96032.25;4946824;28;20023;-68
2023/08/15 07:19:25;;;;;;;5.22;3.65;;;26.90;66.50;;;25.32;96.98;96035.34;4946354;28;20115;-64
2023/08/15 07:21:51;;;;;;;8.02;4.53;;;27.10;65.60;;;25.43;95.48;96026.09;4964810;28;20138;-63
2023/08/15 07:24:17;;;;;;;7.15;6.18;;;27.20;63.90;;;25.56;93.92;96016.53;4932912;29;20428;-61
2023/08/15 07:26:44;;;;;;;8.32;5.72;;;27.50;64.10;;;25.71;93.80;96029.06;4965559;28;20043;-61
2023/08/15 07:29:09;;;;;;;6.00;3.83;;;27.60;63.70;;;25.83;90.67;96024.91;4932793;29;20027;-62
2023/08/15 07:31:35;;;;;;;7.95;4.45;;;27.60;62.00;;;25.98;89.69;96023.88;4947629;28;20603;-62
2023/08/15 07:34:01;;;;;;;5.22;3.70;;;27.90;61.90;;;26.11;89.63;96028.59;4949695;28;20474;-62
2023/08/15 07:36:27;;;;;;;6.25;3.53;;;28.10;61.50;;;26.28;89.66;96024.59;4948503;28;20118;-61
2023/08/15 07:38:53;;;;;;;5.07;4.50;;;28.30;61.90;;;26.45;88.43;96027.63;4948297;28;20071;-62
2023/08/15 07:41:18;;;;;;;12.15;10.32;;;28.50;61.00;;;26.60;86.26;96030.09;4949375;28;20063;-63
2023/08/15 07:43:44;;;;;;;10.38;8.32;;;28.60;59.50;;;26.75;85.94;96021.78;4932309;28;20027;-62
2023/08/15 07:46:10;;;;;;;5.65;4.20;;;28.90;59.40;;;26.93;84.92;96022.03;4949145;28;20069;-62
2023/08/15 07:48:36;;;;;;;4.45;3.70;;;29.10;58.70;;;27.10;83.76;96023.13;4947449;28;20126;-66
2023/08/15 07:51:03;;;;;;;5.32;3.65;;;29.30;57.30;;;27.25;83.19;96024.78;4948634;28;20071;-66
2023/08/15 07:53:28;;;;;;;6.50;3.72;;;29.40;57.60;;;27.44;82.19;96028.22;4964024;28;20552;-66
2023/08/15 07:55:54;;;;;;;17.08;13.95;;;29.60;56.80;;;27.64;81.14;96021.66;4930296;29;20074;-67
2023/08/15 07:58:20;;;;;;;16.85;14.40;;;29.80;56.80;;;27.87;81.57;96019.88;4949610;28;20075;-66
2023/08/15 08:00:46;;;;;;;6.75;5.03;;;30.20;57.00;;;28.10;80.79;96025.38;4946551;28;20133;-66
2023/08/15 08:03:12;;;;;;;6.38;3.88;;;30.40;56.20;;;28.28;79.58;96024.44;4950028;28;20668;-70
2023/08/15 08:05:38;;;;;;;7.05;4.38;;;30.60;55.40;;;28.46;78.31;96028.13;4930600;28;21130;-66
2023/08/15 08:08:04;;;;;;;8.60;4.75;;;30.70;54.90;;;28.60;76.81;96018.88;4948167;28;20050;-64
2023/08/15 08:10:30;;;;;;;12.88;11.57;;;30.80;53.90;;;28.79;76.67;96024.13;4947642;28;20069;-64
2023/08/15 08:12:58;;;;;;;6.30;5.35;;;31.20;54.10;;;29.00;76.07;96029.88;4947427;28;20035;-64
2023/08/15 08:15:24;;;;;;;6.28;4.05;;;31.40;54.20;;;29.21;75.41;96032.88;4931606;28;20094;-64
2023/08/15 08:17:50;;;;;;;4.63;3.78;;;31.60;52.80;;;29.37;74.08;96036.00;4952279;28;20061;-64
2023/08/15 08:20:17;;;;;;;6.55;3.95;;;31.70;52.10;;;29.56;73.20;96031.97;4967411;28;20086;-69
2023/08/15 08:22:43;;;;;;;4.55;3.80;;;32.00;52.30;;;29.74;73.01;96032.88;4950524;28;20133;-61
2023/08/15 08:25:18;;;;;;;7.78;3.60;;;32.20;51.80;;;29.94;69.86;96023.38;4948072;28;20050;-66
2023/08/15 08:27:44;;;;;;;6.63;3.90;;;32.60;51.00;;;30.16;71.64;96033.34;4944507;28;20152;-67
2023/08/15 08:30:12;;;;;;;4.78;3.90;;;32.80;50.30;;;30.31;70.95;96029.38;4947779;28;20106;-66
2023/08/15 08:32:37;;;;;;;5.70;4.20;;;33.00;50.10;;;30.48;70.12;96027.50;4945460;28;20094;-67
2023/08/15 08:35:05;;;;;;;6.60;4.07;;;33.10;49.70;;;30.65;68.84;96028.66;4930336;28;20078;-66
2023/08/15 08:37:34;;;;;;;6.03;3.95;;;33.40;49.00;;;30.85;67.19;96021.78;4946967;28;20098;-65
2023/08/15 08:39:59;;;;;;;4.10;3.70;;;33.50;49.10;;;30.96;67.77;96032.00;4947411;28;20054;-67
2023/08/15 08:42:25;;;;;;;15.77;5.03;;;33.60;49.20;;;31.04;67.80;96033.94;4951028;28;20067;-66
2023/08/15 08:44:51;;;;;;;5.13;4.00;;;33.50;48.90;;;31.14;67.46;96034.72;4946714;28;20119;-66
2023/08/15 08:47:18;;;;;;;4.60;3.85;;;33.60;49.20;;;31.20;67.33;96034.25;4924508;29;20090;-67
2023/08/15 08:49:43;;;;;;;5.25;3.75;;;33.70;49.80;;;31.32;67.50;96028.16;4968561;28;20035;-62
2023/08/15 08:52:09;;;;;;;5.15;3.90;;;34.00;49.10;;;31.47;66.24;96033.09;4949649;28;20053;-63
2023/08/15 08:54:35;;;;;;;5.88;4.55;;;34.10;48.60;;;31.65;65.55;96022.94;4947386;28;20069;-65
2023/08/15 08:57:04;;;;;;;4.60;4.05;;;34.40;47.10;;;31.86;65.31;96023.81;4967726;28;20206;-61
2023/08/15 08:59:29;;;;;;;8.05;4.30;;;34.80;46.80;;;32.06;64.00;96019.56;4946485;28;20035;-61
2023/08/15 09:01:55;;;;;;;5.63;4.05;;;34.90;46.10;;;32.20;64.01;96017.41;4950289;28;20055;-61
2023/08/15 09:04:21;;;;;;;5.50;4.10;;;35.00;46.30;;;32.39;63.86;96025.19;4966228;28;20117;-65
2023/08/15 09:06:47;;;;;;;4.30;3.72;;;35.30;46.70;;;32.59;63.16;96029.03;4966319;28;20039;-62
2023/08/15 09:09:13;;;;;;;5.78;3.80;;;35.60;45.50;;;32.80;63.26;96029.84;4962992;28;20030;-62
2023/08/15 09:11:38;;;;;;;5.13;4.13;;;35.90;45.80;;;33.03;62.05;96013.16;4965736;28;20070;-66
2023/08/15 09:14:05;;;;;;;6.03;4.28;;;36.10;44.40;;;33.20;61.24;96015.72;4963505;28;20525;-66
2023/08/15 09:16:32;;;;;;;6.28;4.55;;;36.30;44.30;;;33.39;60.97;96013.31;4965415;28;20083;-65
2023/08/15 09:19:02;;;;;;;6.03;4.20;;;36.60;44.10;;;33.60;57.79;96001.53;4966268;28;20046;-65
2023/08/15 09:21:28;;;;;;;4.32;3.60;;;36.60;43.20;;;33.77;58.50;95996.66;4965589;28;20031;-63
2023/08/15 09:23:56;;;;;;;4.22;3.83;;;37.00;42.30;;;34.01;57.51;95995.88;4964189;28;20042;-65
2023/08/15 09:26:23;;;;;;;5.68;3.65;;;37.30;42.30;;;34.25;58.10;95994.28;4966975;28;20122;-64
2023/08/15 09:28:50;;;;;;;6.20;5.53;;;37.70;43.30;;;34.51;57.82;95989.25;4964956;28;20045;-64
2023/08/15 09:31:17;;;;;;;6.13;4.07;;;38.00;41.70;;;34.72;56.58;95991.00;4966558;28;20042;-64
2023/08/15 09:33:43;;;;;;;10.43;4.30;;;38.10;40.60;;;34.82;55.62;95995.97;4961502;28;20039;-63
2023/08/15 09:36:09;;;;;;;6.10;4.22;;;38.00;40.60;;;35.04;54.44;95989.97;4957095;28;20065;-63
2023/08/15 09:38:38;;;;;;;6.35;5.25;;;38.40;40.80;;;35.31;52.92;95969.25;4940406;28;20165;-65
2023/08/15 09:41:05;;;;;;;5.70;3.90;;;38.90;39.50;;;35.51;54.06;95978.34;4958769;28;20118;-65
2023/08/15 09:43:31;;;;;;;4.70;3.95;;;39.10;39.50;;;35.70;52.62;95978.44;4956134;28;20101;-67
2023/08/15 09:46:00;;;;;;;5.72;4.80;;;39.20;38.30;;;35.88;50.79;95959.75;4964059;28;20031;-63
2023/08/15 09:48:28;;;;;;;13.50;12.10;;;39.30;38.50;;;36.07;52.00;95962.53;4954286;28;20050;-64
2023/08/15 09:50:55;;;;;;;8.43;4.22;;;39.70;38.00;;;36.30;50.78;95965.41;4962956;28;20153;-67
2023/08/15 09:53:22;;;;;;;6.78;4.45;;;39.80;37.40;;;36.44;50.43;95963.00;4962119;28;20054;-67
2023/08/15 09:55:47;;;;;;;4.53;4.07;;;39.80;37.00;;;36.63;50.42;95958.66;4945326;28;20038;-62
2023/08/15 09:58:13;;;;;;;5.03;3.80;;;40.30;37.30;;;36.79;49.63;95962.16;4966606;28;20043;-63
2023/08/15 10:00:39;;;;;;;8.48;3.80;;;40.60;36.50;;;36.96;49.15;95959.00;4964620;28;20054;-63
2023/08/15 10:03:18;;;;;;;4.68;3.80;;;40.90;36.00;;;37.16;47.51;95939.78;4943970;28;20050;-63
2023/08/15 10:05:49;;;;;;;4.55;3.85;;;41.30;36.20;;;37.40;46.99;95951.22;4963935;28;20067;-63
2023/08/15 10:08:15;;;;;;;4.82;3.70;;;41.70;35.50;;;37.59;47.68;95958.59;4945571;28;20375;-63
2023/08/15 10:10:41;;;;;;;5.50;3.70;;;41.80;34.50;;;37.69;47.07;95952.47;4947713;28;20039;-63